Terminal Aerodrome Forecast
Issued by NWS

Current Version | Previous Version | Graphics & Text | Print | Product List | Glossary On
Versions: 1 2 3 4 5 6 7 8 9 10 11 12 13 14 15 16 17 18 19
000
FTUS41 KILN 221400 AAA
TAFLUK
TAF AMD
KLUK 221451Z 2215/2312 30014KT P6SM SCT028
      TEMPO 2215/2216 BKN028
     FM221700 32015G22KT P6SM FEW045
     FM230000 33008KT P6SM SKC=

USA.gov is the U.S. government's official web portal to all federal, state and local government web resources and services.